Accueil
METAR-TAF:

METAR-TAF

Aéroports :

Nairobi, Kenya

Aéroport international Jomo-Kenyatta

latitude: 01-19S, longitude: 036-55E, altitude: 1624 m

Observation

Le bulletin a été fait il y a 41 minutes, à 04:30 UTC
Vent 6 kt de sud
Température 16°C
Humidité 88%
Pression 1023 hPa
Visibilité 10 km ou plus
Nuages fragmentés à une hauteur de 1600 ft

METAR: HKJK 260430Z 18006KT 9999 BKN016 16/14 Q1023

Heure: 08:11 (05:11 UTC)


TAF: absent

Observations et prévisions météorologiques de plus de 4000 aéroports (messages METAR et TAF).

Les stations disponibles sont représentées par des disques jaunes et rouges sur la carte.

Passer la souris dessus pour voir le nom de la station.

Cliquer dessus pour voir les observations et prévisions météorologiques.

Pour changer de carte: cliquez sur les boutons verts avec une croix noire pour zoomer, sur le bouton vert avec un tiret pour effectuer un zoom arrière, ou sur les flèches vertes pour les cartes adjacentes.


METAR-TAF: